createdAt,value
2022-11-10T00:01:43.427Z,11.20
2022-11-10T00:04:13.312Z,11.20
2022-11-10T00:06:44.717Z,11.20
2022-11-10T00:09:14.958Z,11.20
2022-11-10T00:11:47.655Z,11.30
2022-11-10T00:14:29.974Z,11.30
2022-11-10T00:17:05.715Z,11.40
2022-11-10T00:19:37.151Z,11.40
2022-11-10T00:22:07.011Z,11.40
2022-11-10T00:24:37.045Z,11.40
2022-11-10T00:27:09.610Z,11.40
2022-11-10T00:29:39.459Z,11.40
2022-11-10T00:32:09.381Z,11.40
2022-11-10T00:34:39.499Z,11.40
2022-11-10T00:37:09.443Z,11.40
2022-11-10T00:39:39.393Z,11.40
2022-11-10T00:42:12.080Z,11.30
2022-11-10T00:44:41.998Z,11.30
2022-11-10T00:47:11.878Z,11.30
2022-11-10T00:49:41.744Z,11.20
2022-11-10T00:52:11.795Z,11.20
2022-11-10T00:54:41.746Z,11.20
2022-11-10T00:57:14.163Z,11.30
2022-11-10T00:59:43.993Z,11.30
2022-11-10T01:02:13.841Z,11.40
2022-11-10T01:04:43.677Z,11.40
2022-11-10T01:07:13.555Z,11.40
2022-11-10T01:09:43.434Z,11.50
2022-11-10T01:12:15.910Z,11.60
2022-11-10T01:14:45.815Z,11.60
2022-11-10T01:17:15.662Z,11.60
2022-11-10T01:19:45.717Z,11.70
2022-11-10T01:22:15.565Z,11.70
2022-11-10T01:24:45.466Z,11.60
2022-11-10T01:27:17.867Z,11.70
2022-11-10T01:29:47.712Z,11.70
2022-11-10T01:32:17.563Z,11.70
2022-11-10T01:34:47.840Z,11.70
2022-11-10T01:37:17.875Z,11.70
2022-11-10T01:39:47.735Z,11.70
2022-11-10T01:42:27.631Z,11.70
2022-11-10T01:45:51.698Z,11.70
2022-11-10T01:48:31.542Z,11.70
2022-11-10T01:51:05.194Z,11.70
2022-11-10T01:53:38.800Z,11.70
2022-11-10T01:56:12.116Z,11.70
2022-11-10T01:58:52.031Z,11.70
2022-11-10T02:01:22.130Z,11.70
2022-11-10T02:03:54.644Z,11.60
2022-11-10T02:06:29.066Z,11.60
2022-11-10T02:09:00.391Z,11.60
2022-11-10T02:11:31.728Z,11.60
2022-11-10T02:14:04.525Z,11.60
2022-11-10T02:16:35.336Z,11.60
2022-11-10T02:19:17.981Z,11.60
2022-11-10T02:21:50.875Z,11.60
2022-11-10T02:24:20.897Z,11.60
2022-11-10T02:26:55.989Z,11.50
2022-11-10T02:29:26.694Z,11.50
2022-11-10T02:31:56.539Z,11.50
2022-11-10T02:34:26.354Z,11.50
2022-11-10T02:36:58.780Z,11.40
2022-11-10T02:39:28.637Z,11.40
2022-11-10T02:41:58.619Z,11.30
2022-11-10T02:44:28.488Z,11.40
2022-11-10T02:46:58.332Z,11.30
2022-11-10T02:49:28.167Z,11.30
2022-11-10T02:52:00.635Z,11.30
2022-11-10T02:54:30.484Z,11.30
2022-11-10T02:57:02.832Z,11.30
2022-11-10T02:59:32.738Z,11.30
2022-11-10T03:02:02.544Z,11.30
2022-11-10T03:04:32.421Z,11.30
2022-11-10T03:07:04.927Z,11.30
2022-11-10T03:09:34.795Z,11.30
2022-11-10T03:12:04.639Z,11.40
2022-11-10T03:14:34.519Z,11.40
2022-11-10T03:17:04.401Z,11.40
2022-11-10T03:19:34.252Z,11.40
2022-11-10T03:22:06.731Z,11.40
2022-11-10T03:24:36.572Z,11.40
2022-11-10T03:27:06.871Z,11.40
2022-11-10T03:29:36.787Z,11.50
2022-11-10T03:32:06.651Z,11.50
2022-11-10T03:34:36.516Z,11.50
2022-11-10T03:37:08.967Z,11.50
2022-11-10T03:39:38.798Z,11.40
2022-11-10T03:42:08.792Z,11.50
2022-11-10T03:44:38.657Z,11.50
2022-11-10T03:47:08.597Z,11.50
2022-11-10T03:49:38.448Z,11.50
2022-11-10T03:52:10.897Z,11.50
2022-11-10T03:54:40.736Z,11.50
2022-11-10T03:57:10.617Z,11.50
2022-11-10T03:59:40.468Z,11.50
2022-11-10T04:02:10.412Z,11.50
2022-11-10T04:04:52.810Z,11.50
2022-11-10T04:07:37.868Z,11.50
2022-11-10T04:10:08.821Z,11.50
2022-11-10T04:12:51.225Z,11.50
2022-11-10T04:15:45.689Z,11.50
2022-11-10T04:18:24.728Z,11.50
2022-11-10T04:20:56.780Z,11.50
2022-11-10T04:23:34.880Z,11.50
2022-11-10T04:26:19.570Z,11.40
2022-11-10T04:28:51.024Z,11.50
2022-11-10T04:31:22.985Z,11.40
2022-11-10T04:33:53.920Z,11.50
2022-11-10T04:36:27.608Z,11.50
2022-11-10T04:39:00.133Z,11.50
2022-11-10T04:41:32.476Z,11.60
2022-11-10T04:44:03.761Z,11.50
2022-11-10T04:46:36.574Z,11.50
2022-11-10T04:49:08.978Z,11.50
2022-11-10T04:51:41.098Z,11.50
2022-11-10T04:54:13.996Z,11.50
2022-11-10T04:56:43.880Z,11.50
2022-11-10T04:59:14.800Z,11.50
2022-11-10T05:01:44.669Z,11.50
2022-11-10T05:04:14.500Z,11.50
2022-11-10T05:06:44.374Z,11.50
2022-11-10T05:09:16.839Z,11.50
2022-11-10T05:11:46.650Z,11.40
2022-11-10T05:14:16.482Z,11.40
2022-11-10T05:16:46.307Z,11.40
2022-11-10T05:19:16.161Z,11.30
2022-11-10T05:21:45.996Z,11.30
2022-11-10T05:24:18.426Z,11.30
2022-11-10T05:26:48.268Z,11.30
2022-11-10T05:29:18.141Z,11.20
2022-11-10T05:31:51.514Z,11.20
2022-11-10T05:34:21.669Z,11.20
2022-11-10T05:36:51.579Z,11.20
2022-11-10T05:39:24.016Z,11.10
2022-11-10T05:41:53.921Z,11.10
2022-11-10T05:44:23.763Z,11.10
2022-11-10T05:46:53.602Z,11.00
2022-11-10T05:49:23.451Z,11.00
2022-11-10T05:51:53.304Z,10.90
2022-11-10T05:54:25.708Z,10.90
2022-11-10T05:56:55.552Z,10.80
2022-11-10T05:59:25.532Z,10.80
2022-11-10T06:01:55.359Z,10.70
2022-11-10T06:04:25.483Z,10.80
2022-11-10T06:06:55.346Z,10.70
2022-11-10T06:09:27.838Z,10.70
2022-11-10T06:11:57.703Z,10.60
2022-11-10T06:14:27.557Z,10.50
2022-11-10T06:16:57.415Z,10.50
2022-11-10T06:19:27.273Z,10.50
2022-11-10T06:22:02.402Z,10.40
2022-11-10T06:24:37.569Z,10.40
2022-11-10T06:27:07.558Z,10.40
2022-11-10T06:29:37.423Z,10.30
2022-11-10T06:32:07.415Z,10.30
2022-11-10T06:34:37.299Z,10.20
2022-11-10T06:37:07.146Z,10.10
2022-11-10T06:39:39.592Z,10.10
2022-11-10T06:42:09.439Z,10.00
2022-11-10T06:44:39.311Z,10.00
2022-11-10T06:47:09.227Z,9.90
2022-11-10T06:49:39.073Z,9.90
2022-11-10T06:52:08.947Z,9.90
2022-11-10T06:54:41.366Z,9.90
2022-11-10T06:57:11.207Z,9.80
2022-11-10T06:59:41.052Z,9.80
2022-11-10T07:02:16.652Z,9.80
2022-11-10T07:04:46.519Z,9.70
2022-11-10T07:07:16.431Z,9.70
2022-11-10T07:09:48.947Z,9.70
2022-11-10T07:12:19.733Z,9.70
2022-11-10T07:14:49.566Z,9.70
2022-11-10T07:17:19.446Z,9.70
2022-11-10T07:19:49.298Z,9.70
2022-11-10T07:22:19.156Z,9.70
2022-11-10T07:24:51.582Z,9.70
2022-11-10T07:27:21.540Z,9.70
2022-11-10T07:29:51.462Z,9.80
2022-11-10T07:32:21.322Z,9.80
2022-11-10T07:34:51.472Z,9.90
2022-11-10T07:37:21.343Z,9.90
2022-11-10T07:39:53.888Z,10.00
2022-11-10T07:42:23.726Z,10.00
2022-11-10T07:44:53.575Z,10.10
2022-11-10T07:47:23.392Z,10.10
2022-11-10T07:49:53.279Z,10.20
2022-11-10T07:52:23.117Z,10.20
2022-11-10T07:54:55.566Z,10.20
2022-11-10T07:57:25.383Z,10.30
2022-11-10T07:59:57.880Z,10.30
2022-11-10T08:02:27.992Z,10.30
2022-11-10T08:04:57.854Z,10.40
2022-11-10T08:07:27.760Z,10.40
2022-11-10T08:10:00.187Z,10.50
2022-11-10T08:12:33.587Z,10.60
2022-11-10T08:15:03.730Z,10.60
2022-11-10T08:17:33.577Z,10.70
2022-11-10T08:20:04.731Z,10.70
2022-11-10T08:22:34.602Z,10.80
2022-11-10T08:25:08.308Z,10.80
2022-11-10T08:27:38.196Z,10.90
2022-11-10T08:30:10.954Z,11.00
2022-11-10T08:32:40.806Z,11.10
2022-11-10T08:35:11.608Z,11.10
2022-11-10T08:37:41.443Z,11.20
2022-11-10T08:40:15.644Z,11.30
2022-11-10T08:42:45.489Z,11.30
2022-11-10T08:45:15.909Z,11.30
2022-11-10T08:47:47.411Z,11.50
2022-11-10T08:50:17.970Z,11.50
2022-11-10T08:52:47.810Z,11.60
2022-11-10T08:55:20.434Z,11.70
2022-11-10T08:57:50.498Z,11.80
2022-11-10T09:00:21.704Z,11.80
2022-11-10T09:02:52.049Z,11.90
2022-11-10T09:05:22.058Z,11.90
2022-11-10T09:07:53.474Z,12.00
2022-11-10T09:10:25.960Z,12.10
2022-11-10T09:12:55.872Z,12.20
2022-11-10T09:15:25.712Z,12.30
2022-11-10T09:17:55.543Z,12.20
2022-11-10T09:20:25.369Z,12.20
2022-11-10T09:22:55.240Z,12.20
2022-11-10T09:25:27.698Z,12.20
2022-11-10T09:27:57.531Z,12.20
2022-11-10T09:30:28.468Z,12.20
2022-11-10T09:32:59.606Z,12.20
2022-11-10T09:35:30.513Z,12.30
2022-11-10T09:38:00.398Z,12.40
2022-11-10T09:40:54.071Z,12.40
2022-11-10T09:43:31.140Z,12.40
2022-11-10T09:46:06.623Z,12.40
2022-11-10T09:48:40.144Z,12.40
2022-11-10T09:51:15.491Z,12.40
2022-11-10T09:53:53.246Z,12.50
2022-11-10T09:56:34.911Z,12.70
2022-11-10T09:59:10.166Z,12.80
2022-11-10T10:01:51.038Z,12.80
2022-11-10T10:04:56.072Z,13.00
2022-11-10T10:07:30.399Z,13.00
2022-11-10T10:10:06.723Z,13.00
2022-11-10T10:12:57.859Z,13.00
2022-11-10T10:15:38.622Z,13.10
2022-11-10T10:18:24.175Z,13.20
2022-11-10T10:21:22.445Z,13.20
2022-11-10T10:24:19.873Z,13.40
2022-11-10T10:26:53.934Z,13.50
2022-11-10T10:29:33.127Z,13.70
2022-11-10T10:32:07.801Z,13.70
2022-11-10T10:34:37.807Z,13.70
2022-11-10T10:37:07.780Z,13.70
2022-11-10T10:39:45.128Z,13.60
2022-11-10T10:42:31.080Z,13.60
2022-11-10T10:45:23.768Z,13.50
2022-11-10T10:47:55.854Z,13.40
2022-11-10T10:50:30.508Z,13.50
2022-11-10T10:53:17.818Z,13.70
2022-11-10T10:55:51.215Z,13.80
2022-11-10T10:58:30.613Z,13.80
2022-11-10T11:01:09.130Z,13.80
2022-11-10T11:03:47.670Z,13.90
2022-11-10T11:06:27.782Z,13.80
2022-11-10T11:09:03.412Z,13.60
2022-11-10T11:11:36.146Z,13.80
2022-11-10T11:14:18.009Z,14.10
2022-11-10T11:16:56.281Z,14.10
2022-11-10T11:19:28.670Z,13.90
2022-11-10T11:22:31.692Z,13.60
2022-11-10T11:25:13.675Z,13.50
2022-11-10T11:27:55.306Z,13.50
2022-11-10T11:30:26.933Z,13.50
2022-11-10T11:33:38.180Z,13.50
2022-11-10T11:36:21.848Z,13.60
2022-11-10T11:39:01.064Z,13.80
2022-11-10T11:41:40.817Z,13.80
2022-11-10T11:44:27.407Z,14.00
2022-11-10T11:47:12.230Z,13.90
2022-11-10T11:50:02.534Z,14.10
2022-11-10T11:52:39.139Z,14.10
2022-11-10T11:55:23.021Z,14.00
2022-11-10T11:58:08.759Z,14.00
2022-11-10T12:00:48.234Z,13.90
2022-11-10T12:03:40.173Z,13.80
2022-11-10T12:06:43.253Z,14.00
2022-11-10T12:09:23.885Z,14.10
2022-11-10T12:12:09.320Z,14.10
2022-11-10T12:14:53.912Z,14.00
2022-11-10T12:17:42.379Z,13.90
2022-11-10T12:20:29.066Z,13.80
2022-11-10T12:23:11.019Z,13.90
2022-11-10T12:25:56.448Z,13.80
2022-11-10T12:28:31.096Z,13.70
2022-11-10T12:31:03.727Z,13.70
2022-11-10T12:33:41.061Z,13.70
2022-11-10T12:36:16.557Z,13.70
2022-11-10T12:39:00.091Z,13.80
2022-11-10T12:41:40.082Z,13.70
2022-11-10T12:44:21.632Z,13.70
2022-11-10T12:46:56.897Z,13.70
2022-11-10T12:49:32.072Z,13.70
2022-11-10T12:52:11.215Z,13.80
2022-11-10T12:54:42.674Z,14.00
2022-11-10T12:57:21.443Z,13.90
2022-11-10T12:59:58.975Z,13.90
2022-11-10T13:02:34.740Z,13.90
2022-11-10T13:05:30.536Z,13.90
2022-11-10T13:08:40.209Z,13.90
2022-11-10T13:11:31.031Z,14.00
2022-11-10T13:14:06.483Z,14.00
2022-11-10T13:16:54.108Z,14.00
2022-11-10T13:19:55.911Z,13.90
2022-11-10T13:22:37.088Z,13.90
2022-11-10T13:26:05.748Z,13.90
2022-11-10T13:29:04.325Z,13.80
2022-11-10T13:31:55.958Z,13.90
2022-11-10T13:34:36.808Z,14.00
2022-11-10T13:37:50.859Z,14.10
2022-11-10T13:40:32.290Z,14.30
2022-11-10T13:43:27.842Z,14.40
2022-11-10T13:46:10.258Z,14.30
2022-11-10T13:48:58.625Z,14.30
2022-11-10T13:51:40.426Z,14.10
2022-11-10T13:54:52.367Z,14.10
2022-11-10T13:57:32.935Z,14.20
2022-11-10T14:00:07.945Z,14.10
2022-11-10T14:02:56.453Z,14.10
2022-11-10T14:06:09.312Z,14.00
2022-11-10T14:08:49.757Z,14.00
2022-11-10T14:11:25.776Z,14.00
2022-11-10T14:14:07.890Z,14.00
2022-11-10T14:16:44.815Z,14.00
2022-11-10T14:19:34.936Z,14.00
2022-11-10T14:22:20.228Z,13.90
2022-11-10T14:25:00.310Z,14.00
2022-11-10T14:27:32.556Z,14.10
2022-11-10T14:30:26.056Z,14.10
2022-11-10T14:33:01.084Z,14.10
2022-11-10T14:35:38.633Z,14.00
2022-11-10T14:38:20.874Z,13.90
2022-11-10T14:40:51.956Z,13.80
2022-11-10T14:43:33.942Z,13.80
2022-11-10T14:46:05.099Z,13.80
2022-11-10T14:48:36.914Z,13.70
2022-11-10T14:51:15.952Z,13.70
2022-11-10T14:53:52.376Z,13.70
2022-11-10T14:56:26.466Z,13.70
2022-11-10T14:58:59.220Z,13.60
2022-11-10T15:01:34.798Z,13.60
2022-11-10T15:04:06.632Z,13.50
2022-11-10T15:06:45.748Z,13.50
2022-11-10T15:09:19.512Z,13.50
2022-11-10T15:11:53.714Z,13.50
2022-11-10T15:14:36.561Z,13.40
2022-11-10T15:17:09.825Z,13.40
2022-11-10T15:19:41.727Z,13.40
2022-11-10T15:22:24.181Z,13.40
2022-11-10T15:24:55.269Z,13.40
2022-11-10T15:27:28.387Z,13.30
2022-11-10T15:30:01.290Z,13.30
2022-11-10T15:32:37.107Z,13.30
2022-11-10T15:35:15.446Z,13.20
2022-11-10T15:38:02.267Z,13.20
2022-11-10T15:40:39.710Z,13.20
2022-11-10T15:43:30.476Z,13.20
2022-11-10T15:46:03.694Z,13.10
2022-11-10T15:48:41.438Z,13.10
2022-11-10T15:51:15.082Z,13.10
2022-11-10T15:53:50.202Z,13.00
2022-11-10T15:56:23.074Z,13.00
2022-11-10T15:59:00.663Z,12.90
2022-11-10T16:01:31.913Z,12.90
2022-11-10T16:04:02.159Z,12.90
2022-11-10T16:06:32.499Z,12.80
2022-11-10T16:09:04.975Z,12.80
2022-11-10T16:11:35.708Z,12.70
2022-11-10T16:14:07.655Z,12.70
2022-11-10T16:16:37.491Z,12.70
2022-11-10T16:19:07.859Z,12.60
2022-11-10T16:21:37.772Z,12.50
2022-11-10T16:24:10.729Z,12.50
2022-11-10T16:26:40.739Z,12.50
2022-11-10T16:29:16.027Z,12.40
2022-11-10T16:31:45.861Z,12.40
2022-11-10T16:34:17.413Z,12.30
2022-11-10T16:36:47.546Z,12.30
2022-11-10T16:39:20.871Z,12.30
2022-11-10T16:41:52.707Z,12.20
2022-11-10T16:44:25.227Z,12.20
2022-11-10T16:46:58.330Z,12.10
2022-11-10T16:49:34.281Z,12.00
2022-11-10T16:52:14.263Z,11.80
2022-11-10T16:54:46.681Z,11.80
2022-11-10T16:57:19.842Z,11.80
2022-11-10T16:59:49.662Z,11.80
2022-11-10T17:02:31.402Z,11.80
2022-11-10T17:05:01.693Z,11.70
2022-11-10T17:07:32.267Z,11.70
2022-11-10T17:10:05.074Z,11.60
2022-11-10T17:12:35.412Z,11.60
2022-11-10T17:15:05.521Z,11.60
2022-11-10T17:17:36.752Z,11.60
2022-11-10T17:20:10.298Z,11.50
2022-11-10T17:22:40.496Z,11.50
2022-11-10T17:25:21.305Z,11.50
2022-11-10T17:27:51.132Z,11.40
2022-11-10T17:30:21.437Z,11.50
2022-11-10T17:33:09.541Z,11.40
2022-11-10T17:35:46.721Z,11.40
2022-11-10T17:38:23.336Z,11.30
2022-11-10T17:40:56.480Z,11.30
2022-11-10T17:43:26.627Z,11.30
2022-11-10T17:45:56.655Z,11.30
2022-11-10T17:48:26.497Z,11.30
2022-11-10T17:50:56.349Z,11.20
2022-11-10T17:53:28.541Z,11.20
2022-11-10T17:56:01.004Z,11.20
2022-11-10T17:58:30.886Z,11.20
2022-11-10T18:01:00.772Z,11.20
2022-11-10T18:03:32.976Z,11.20
2022-11-10T18:06:02.848Z,11.20
2022-11-10T18:08:32.697Z,11.20
2022-11-10T18:11:05.124Z,11.20
2022-11-10T18:13:35.031Z,11.10
2022-11-10T18:16:04.877Z,11.10
2022-11-10T18:18:35.039Z,11.10
2022-11-10T18:21:05.191Z,11.10
2022-11-10T18:23:35.224Z,11.20
2022-11-10T18:26:11.861Z,11.20
2022-11-10T18:28:43.302Z,11.20
2022-11-10T18:31:15.647Z,11.20
2022-11-10T18:33:45.526Z,11.30
2022-11-10T18:36:15.412Z,11.30
2022-11-10T18:38:45.382Z,11.20
2022-11-10T18:41:39.221Z,11.30
2022-11-10T18:44:09.079Z,11.30
2022-11-10T18:46:39.088Z,11.30
2022-11-10T18:49:09.337Z,11.30
2022-11-10T18:51:39.777Z,11.30
2022-11-10T18:54:10.025Z,11.30
2022-11-10T18:56:42.616Z,11.40
2022-11-10T18:59:12.512Z,11.40
2022-11-10T19:01:42.422Z,11.40
2022-11-10T19:04:12.879Z,11.40
2022-11-10T19:06:43.073Z,11.40
2022-11-10T19:09:14.594Z,11.40
2022-11-10T19:11:47.155Z,11.40
2022-11-10T19:14:17.048Z,11.40
2022-11-10T19:16:47.108Z,11.40
2022-11-10T19:19:17.285Z,11.50
2022-11-10T19:21:49.946Z,11.40
2022-11-10T19:24:27.768Z,11.50
2022-11-10T19:27:00.828Z,11.50
2022-11-10T19:29:31.320Z,11.50
2022-11-10T19:32:01.175Z,11.50
2022-11-10T19:34:31.561Z,11.50
2022-11-10T19:37:01.397Z,11.50
2022-11-10T19:39:31.335Z,11.50
2022-11-10T19:42:03.814Z,11.50
2022-11-10T19:44:33.991Z,11.50
2022-11-10T19:47:03.836Z,11.50
2022-11-10T19:49:33.679Z,11.50
2022-11-10T19:52:03.580Z,11.50
2022-11-10T19:54:33.436Z,11.50
2022-11-10T19:57:06.805Z,11.50
2022-11-10T19:59:36.681Z,11.50
2022-11-10T20:02:06.629Z,11.50
2022-11-10T20:04:56.470Z,11.50
2022-11-10T20:07:53.845Z,11.50
2022-11-10T20:10:24.918Z,11.50
2022-11-10T20:12:57.450Z,11.50
2022-11-10T20:15:27.465Z,11.50
2022-11-10T20:17:57.306Z,11.50
2022-11-10T20:20:27.181Z,11.50
2022-11-10T20:22:57.020Z,11.50
2022-11-10T20:25:26.884Z,11.50
2022-11-10T20:28:01.366Z,11.50
2022-11-10T20:30:32.462Z,11.60
2022-11-10T20:33:02.383Z,11.50
2022-11-10T20:35:32.677Z,11.50
2022-11-10T20:38:02.502Z,11.60
2022-11-10T20:40:48.396Z,11.60
2022-11-10T20:43:21.213Z,11.60
2022-11-10T20:45:55.212Z,11.60
2022-11-10T20:48:26.734Z,11.60
2022-11-10T20:50:56.584Z,11.60
2022-11-10T20:53:26.557Z,11.60
2022-11-10T20:56:02.088Z,11.60
2022-11-10T20:58:34.967Z,11.60
2022-11-10T21:01:06.321Z,11.60
2022-11-10T21:03:36.953Z,11.70
2022-11-10T21:06:07.795Z,11.70
2022-11-10T21:08:37.864Z,11.70
2022-11-10T21:11:09.418Z,11.70
2022-11-10T21:13:39.255Z,11.70
2022-11-10T21:16:10.186Z,11.70
2022-11-10T21:18:40.364Z,11.70
2022-11-10T21:21:23.897Z,11.70
2022-11-10T21:23:57.480Z,11.70
2022-11-10T21:26:27.484Z,11.80
2022-11-10T21:29:00.479Z,11.80
2022-11-10T21:31:31.257Z,11.80
2022-11-10T21:34:01.576Z,11.80
2022-11-10T21:36:31.923Z,11.80
2022-11-10T21:39:02.171Z,11.80
2022-11-10T21:41:32.156Z,11.80
2022-11-10T21:44:04.678Z,11.80
2022-11-10T21:46:34.518Z,11.80
2022-11-10T21:49:07.658Z,11.80
2022-11-10T21:51:37.845Z,11.80
2022-11-10T21:54:07.904Z,11.80
2022-11-10T21:56:37.763Z,11.80
2022-11-10T21:59:10.163Z,11.80
2022-11-10T22:01:40.222Z,11.70
2022-11-10T22:04:10.295Z,11.70
2022-11-10T22:06:53.032Z,11.60
2022-11-10T22:09:43.547Z,11.60
2022-11-10T22:12:28.430Z,11.50
2022-11-10T22:15:13.588Z,11.50
2022-11-10T22:17:56.083Z,11.40
2022-11-10T22:20:26.222Z,11.40
2022-11-10T22:22:56.078Z,11.30
2022-11-10T22:25:26.115Z,11.30
2022-11-10T22:27:55.976Z,11.30
2022-11-10T22:30:28.410Z,11.20
2022-11-10T22:33:18.223Z,11.20
2022-11-10T22:35:48.043Z,11.20
2022-11-10T22:38:17.888Z,11.10
2022-11-10T22:41:00.245Z,11.10
2022-11-10T22:43:42.575Z,11.10
2022-11-10T22:46:14.995Z,11.00
2022-11-10T22:48:44.823Z,11.00
2022-11-10T22:51:14.696Z,11.00
2022-11-10T22:53:44.591Z,10.90
2022-11-10T22:56:14.571Z,10.90
2022-11-10T22:58:44.448Z,10.90
2022-11-10T23:01:17.356Z,10.80
2022-11-10T23:03:47.297Z,10.80
2022-11-10T23:06:17.679Z,10.70
2022-11-10T23:08:47.631Z,10.70
2022-11-10T23:11:21.895Z,10.60
2022-11-10T23:13:52.350Z,10.50
2022-11-10T23:16:27.059Z,10.50
2022-11-10T23:18:58.094Z,10.50
2022-11-10T23:21:31.446Z,10.40
2022-11-10T23:24:01.473Z,10.30
2022-11-10T23:26:34.046Z,10.30
2022-11-10T23:29:04.083Z,10.30
2022-11-10T23:31:36.520Z,10.20
2022-11-10T23:34:06.529Z,10.10
2022-11-10T23:36:36.361Z,10.00
2022-11-10T23:39:06.424Z,10.00
2022-11-10T23:41:36.273Z,10.00
2022-11-10T23:44:06.272Z,10.00
2022-11-10T23:46:38.698Z,9.90
2022-11-10T23:49:08.536Z,9.90
2022-11-10T23:51:38.355Z,9.90
2022-11-10T23:54:08.294Z,9.90
2022-11-10T23:56:38.200Z,9.80
2022-11-10T23:59:08.040Z,9.80
